createdAt,value
2018-12-22T00:00:59.193Z,62.7
2018-12-22T00:05:34.879Z,61.2
2018-12-22T00:16:14.226Z,64.6
2018-12-22T00:31:22.076Z,62.9
2018-12-22T00:46:43.808Z,63.9
2018-12-22T01:01:58.623Z,69.8
2018-12-22T01:17:13.185Z,72.2
2018-12-22T01:32:27.857Z,69.5
2018-12-22T01:47:40.918Z,66.5
2018-12-22T02:02:58.959Z,64.2
2018-12-22T02:18:12.116Z,56.7
2018-12-22T02:33:26.608Z,53.7
2018-12-22T02:48:31.922Z,53.7
2018-12-22T03:03:56.100Z,53.2
2018-12-22T03:19:10.696Z,53.3
2018-12-22T03:34:25.487Z,55.7
2018-12-22T03:49:40.219Z,61.8
2018-12-22T04:04:50.630Z,68.6
2018-12-22T04:20:08.947Z,74.2
2018-12-22T04:35:22.923Z,77
2018-12-22T04:50:37.007Z,81.3
2018-12-22T05:05:51.440Z,83.2
2018-12-22T05:21:04.659Z,84.9
2018-12-22T05:36:18.348Z,85.3
2018-12-22T05:51:31.964Z,86.2
2018-12-22T06:06:45.725Z,88.2
2018-12-22T06:21:55.019Z,90.8
2018-12-22T06:37:12.937Z,92.2
2018-12-22T06:52:26.466Z,92.4
2018-12-22T07:07:39.986Z,92.2
2018-12-22T07:22:42.837Z,93.2
2018-12-22T07:38:07.185Z,93
2018-12-22T07:53:21.065Z,90.6
2018-12-22T08:08:34.517Z,91.2
2018-12-22T08:23:48.278Z,91.3
2018-12-22T08:38:58.252Z,90.5
2018-12-22T08:54:15.960Z,90.7
2018-12-22T09:09:29.843Z,91.6
2018-12-22T09:24:43.628Z,91.8
2018-12-22T09:39:46.823Z,92.5
2018-12-22T09:55:11.460Z,93.4
2018-12-22T10:10:25.147Z,93.2
2018-12-22T10:25:38.879Z,94.2
2018-12-22T10:40:52.785Z,95.1
2018-12-22T10:56:03.557Z,94
2018-12-22T11:11:20.125Z,92.2
2018-12-22T11:26:33.410Z,90.5
2018-12-22T11:41:46.918Z,90.2
2018-12-22T11:56:50.869Z,91.2
2018-12-22T12:12:13.473Z,90.7
2018-12-22T12:27:26.674Z,89.1
2018-12-22T12:42:39.723Z,89.1
2018-12-22T12:57:53.138Z,90.7
2018-12-22T13:13:04.344Z,92.9
2018-12-22T13:28:18.679Z,92.1
2018-12-22T13:43:31.560Z,90
2018-12-22T13:58:44.606Z,89
2018-12-22T14:13:50.406Z,88.6
2018-12-22T14:29:10.464Z,88
2018-12-22T14:44:23.183Z,87.4
2018-12-22T14:59:36.115Z,86.6
2018-12-22T15:14:49.055Z,86.3
2018-12-22T15:30:02.079Z,84.6
2018-12-22T15:45:14.865Z,84.8
2018-12-22T16:00:27.857Z,83.9
2018-12-22T16:15:40.688Z,83.9
2018-12-22T16:30:48.051Z,85
2018-12-22T16:46:06.705Z,86
2018-12-22T17:01:19.501Z,87
2018-12-22T17:16:32.359Z,88.9
2018-12-22T17:31:45.173Z,90.3
2018-12-22T17:46:58.120Z,90.3
2018-12-22T18:02:11.055Z,90.5
2018-12-22T18:17:23.893Z,91.7
2018-12-22T18:32:37.499Z,92.8
2018-12-22T18:47:48.984Z,92.9
2018-12-22T19:03:02.756Z,92
2018-12-22T19:18:15.814Z,92.2
2018-12-22T19:33:28.977Z,89.4
2018-12-22T19:48:32.701Z,87.8
2018-12-22T20:04:02.482Z,89.7
2018-12-22T20:19:08.722Z,89.6
2018-12-22T20:34:21.809Z,88.3
2018-12-22T20:49:35.334Z,87
2018-12-22T21:04:46.113Z,85.8
2018-12-22T21:20:01.926Z,84.1
2018-12-22T21:35:15.021Z,83.9
2018-12-22T21:50:28.414Z,86.4
2018-12-22T22:05:32.636Z,88.5
2018-12-22T22:20:55.428Z,87
2018-12-22T22:36:08.527Z,84.8
2018-12-22T22:51:21.795Z,82.3
2018-12-22T23:06:35.242Z,81.4
2018-12-22T23:21:46.410Z,79.4
2018-12-22T23:37:02.091Z,78.8
2018-12-22T23:52:15.685Z,79.3
